createdAt,value
2024-03-02T00:01:08.753Z,99854.44
2024-03-02T00:03:36.710Z,99853.63
2024-03-02T00:06:04.854Z,99852.78
2024-03-02T00:08:32.747Z,99859.72
2024-03-02T00:11:01.579Z,99857.78
2024-03-02T00:13:29.436Z,99864.69
2024-03-02T00:15:59.275Z,99840.88
2024-03-02T00:18:28.215Z,99846.13
2024-03-02T00:20:57.892Z,99847.81
2024-03-02T00:23:26.955Z,99870.56
2024-03-02T00:25:56.850Z,99868.59
2024-03-02T00:28:26.070Z,99863.34
2024-03-02T00:31:01.069Z,99863.34
2024-03-02T00:33:30.618Z,99871.94
2024-03-02T00:35:58.589Z,99859.19
2024-03-02T00:38:26.525Z,99859.28
2024-03-02T00:40:54.604Z,99847.38
2024-03-02T00:43:46.023Z,99834.50
2024-03-02T00:46:18.764Z,99829.22
2024-03-02T00:48:57.371Z,99824.06
2024-03-02T00:51:26.725Z,99826.72
2024-03-02T00:53:57.018Z,99824.22
2024-03-02T00:56:25.230Z,99825.19
2024-03-02T00:58:53.584Z,99809.91
2024-03-02T01:01:23.763Z,99819.38
2024-03-02T01:03:52.440Z,99820.88
2024-03-02T01:06:20.573Z,99828.66
2024-03-02T01:08:52.046Z,99825.03
2024-03-02T01:11:20.320Z,99831.13
2024-03-02T01:13:48.277Z,99824.22
2024-03-02T01:16:16.698Z,99827.53
2024-03-02T01:18:46.222Z,99817.00
2024-03-02T01:21:14.192Z,99824.66
2024-03-02T01:23:42.139Z,99824.66
2024-03-02T01:26:09.843Z,99815.09
2024-03-02T01:28:37.653Z,99817.00
2024-03-02T01:31:05.740Z,99805.09
2024-03-02T01:33:33.598Z,99807.59
2024-03-02T01:36:03.017Z,99807.72
2024-03-02T01:38:30.797Z,99807.47
2024-03-02T01:40:59.686Z,99802.34
2024-03-02T01:43:27.588Z,99807.47
2024-03-02T01:45:55.428Z,99807.47
2024-03-02T01:48:23.263Z,99804.81
2024-03-02T01:50:50.971Z,99803.03
2024-03-02T01:53:20.118Z,99809.84
2024-03-02T01:55:47.827Z,99814.97
2024-03-02T01:58:15.679Z,99814.81
2024-03-02T02:00:43.542Z,99805.28
2024-03-02T02:03:11.629Z,99809.56
2024-03-02T02:05:39.362Z,99793.16
2024-03-02T02:08:07.559Z,99807.22
2024-03-02T02:10:37.060Z,99804.31
2024-03-02T02:13:05.128Z,99800.44
2024-03-02T02:15:35.872Z,99812.50
2024-03-02T02:18:04.911Z,99806.53
2024-03-02T02:20:32.752Z,99803.50
2024-03-02T02:23:02.800Z,99802.97
2024-03-02T02:25:31.117Z,99793.53
2024-03-02T02:27:59.907Z,99815.16
2024-03-02T02:30:29.721Z,99810.16
2024-03-02T02:32:57.611Z,99819.34
2024-03-02T02:35:26.222Z,99820.88
2024-03-02T02:37:54.607Z,99821.56
2024-03-02T02:40:23.989Z,99817.25
2024-03-02T02:42:53.205Z,99817.13
2024-03-02T02:45:21.275Z,99815.19
2024-03-02T02:47:49.097Z,99813.28
2024-03-02T02:50:16.892Z,99809.66
2024-03-02T02:52:44.914Z,99819.09
2024-03-02T02:55:14.138Z,99811.19
2024-03-02T02:57:45.100Z,99811.88
2024-03-02T03:00:17.553Z,99804.94
2024-03-02T03:02:48.452Z,99810.94
2024-03-02T03:05:17.105Z,99815.22
2024-03-02T03:07:46.341Z,99814.25
2024-03-02T03:10:15.156Z,99811.34
2024-03-02T03:12:45.768Z,99808.72
2024-03-02T03:15:14.150Z,99810.38
2024-03-02T03:17:42.564Z,99804.41
2024-03-02T03:20:11.836Z,99808.31
2024-03-02T03:22:40.086Z,99799.69
2024-03-02T03:25:09.592Z,99800.25
2024-03-02T03:27:38.059Z,99809.38
2024-03-02T03:30:08.584Z,99811.16
2024-03-02T03:32:36.562Z,99813.22
2024-03-02T03:35:05.200Z,99821.41
2024-03-02T03:37:34.888Z,99818.06
2024-03-02T03:40:03.820Z,99813.34
2024-03-02T03:42:31.649Z,99816.50
2024-03-02T03:44:59.427Z,99816.34
2024-03-02T03:47:28.877Z,99820.69
2024-03-02T03:49:56.727Z,99816.94
2024-03-02T03:52:24.516Z,99816.78
2024-03-02T03:54:52.422Z,99822.75
2024-03-02T03:57:20.355Z,99815.31
2024-03-02T03:59:48.464Z,99819.34
2024-03-02T04:02:16.290Z,99817.53
2024-03-02T04:04:45.739Z,99812.69
2024-03-02T04:07:13.981Z,99816.88
2024-03-02T04:09:41.911Z,99816.97
2024-03-02T04:12:09.735Z,99812.69
2024-03-02T04:14:38.870Z,99830.16
2024-03-02T04:17:07.243Z,99822.00
2024-03-02T04:19:35.568Z,99815.75
2024-03-02T04:22:12.437Z,99819.09
2024-03-02T04:24:46.441Z,99823.28
2024-03-02T04:27:14.334Z,99831.03
2024-03-02T04:29:42.066Z,99833.53
2024-03-02T04:32:09.912Z,99827.44
2024-03-02T04:34:37.730Z,99824.66
2024-03-02T04:37:07.275Z,99829.91
2024-03-02T04:39:37.064Z,99827.88
2024-03-02T04:42:05.263Z,99830.50
2024-03-02T04:44:33.097Z,99835.75
2024-03-02T04:47:00.848Z,99833.13
2024-03-02T04:49:28.763Z,99834.06
2024-03-02T04:51:56.633Z,99839.34
2024-03-02T04:54:26.342Z,99850.59
2024-03-02T04:56:53.132Z,99858.50
2024-03-02T04:59:21.057Z,99852.94
2024-03-02T05:01:49.374Z,99854.59
2024-03-02T05:04:17.155Z,99852.81
2024-03-02T05:06:44.990Z,99855.44
2024-03-02T05:09:12.790Z,99854.75
2024-03-02T05:12:04.070Z,99859.19
2024-03-02T05:14:31.775Z,99860.41
2024-03-02T05:16:59.520Z,99863.19
2024-03-02T05:19:27.322Z,99875.53
2024-03-02T05:21:55.084Z,99869.81
2024-03-02T05:24:23.127Z,99878.56
2024-03-02T05:26:52.224Z,99880.47
2024-03-02T05:29:19.977Z,99888.97
2024-03-02T05:31:47.724Z,99878.69
2024-03-02T05:34:15.620Z,99885.06
2024-03-02T05:36:43.438Z,99878.25
2024-03-02T05:39:11.513Z,99882.81
2024-03-02T05:41:40.149Z,99889.19
2024-03-02T05:44:09.438Z,99884.75
2024-03-02T05:46:38.679Z,99888.34
2024-03-02T05:49:09.001Z,99891.81
2024-03-02T05:51:36.864Z,99887.53
2024-03-02T05:54:05.175Z,99904.16
2024-03-02T05:56:33.273Z,99895.56
2024-03-02T05:59:13.382Z,99904.44
2024-03-02T06:01:42.893Z,99908.00
2024-03-02T06:04:11.725Z,99904.81
2024-03-02T06:06:39.990Z,99911.03
2024-03-02T06:09:09.393Z,99908.53
2024-03-02T06:11:37.488Z,99903.38
2024-03-02T06:14:05.628Z,99912.38
2024-03-02T06:16:33.939Z,99910.88
2024-03-02T06:19:03.579Z,99915.44
2024-03-02T06:21:31.501Z,99917.47
2024-03-02T06:23:59.249Z,99924.53
2024-03-02T06:26:26.972Z,99909.66
2024-03-02T06:28:54.827Z,99924.81
2024-03-02T06:31:22.553Z,99923.97
2024-03-02T06:33:50.518Z,99934.94
2024-03-02T06:36:19.717Z,99937.56
2024-03-02T06:38:47.393Z,99939.94
2024-03-02T06:41:15.117Z,99946.06
2024-03-02T06:43:42.895Z,99946.75
2024-03-02T06:46:10.859Z,99946.75
2024-03-02T06:48:38.775Z,99941.03
2024-03-02T06:51:06.608Z,99937.31
2024-03-02T06:53:35.821Z,99941.75
2024-03-02T06:56:03.637Z,99950.22
2024-03-02T06:58:31.388Z,99941.34
2024-03-02T07:00:59.171Z,99936.22
2024-03-02T07:03:27.039Z,99943.97
2024-03-02T07:05:54.832Z,99939.81
2024-03-02T07:08:22.569Z,99945.63
2024-03-02T07:10:51.722Z,99949.25
2024-03-02T07:13:19.498Z,99948.41
2024-03-02T07:16:07.242Z,99952.84
2024-03-02T07:18:36.137Z,99949.50
2024-03-02T07:21:03.973Z,99948.28
2024-03-02T07:23:32.722Z,99958.81
2024-03-02T07:28:33.595Z,99971.97
2024-03-02T07:31:02.033Z,99977.22
2024-03-02T07:33:29.890Z,99980.59
2024-03-02T07:35:57.882Z,99984.88
2024-03-02T07:38:25.757Z,99977.81
2024-03-02T07:40:54.089Z,99976.72
2024-03-02T07:43:23.535Z,99982.69
2024-03-02T07:45:51.430Z,99981.72
2024-03-02T07:48:19.248Z,99985.06
2024-03-02T07:50:47.107Z,99992.56
2024-03-02T07:53:15.402Z,99987.88
2024-03-02T07:55:43.397Z,99991.22
2024-03-02T07:58:12.678Z,99998.75
2024-03-02T08:00:42.624Z,99996.94
2024-03-02T08:03:12.451Z,100000.00
2024-03-02T08:05:40.822Z,99997.38
2024-03-02T08:08:08.807Z,100007.13
2024-03-02T08:10:36.955Z,100003.25
2024-03-02T08:13:04.964Z,100011.63
2024-03-02T08:15:34.259Z,100009.28
2024-03-02T08:18:03.554Z,100016.78
2024-03-02T08:20:32.625Z,100013.91
2024-03-02T08:23:00.641Z,100023.19
2024-03-02T08:25:28.532Z,100020.03
2024-03-02T08:27:56.390Z,100013.22
2024-03-02T08:30:24.209Z,100016.69
2024-03-02T08:32:51.986Z,100018.75
2024-03-02T08:35:23.447Z,100023.88
2024-03-02T08:37:51.291Z,100026.28
2024-03-02T08:40:19.564Z,100018.81
2024-03-02T08:42:47.947Z,100019.94
2024-03-02T08:45:15.849Z,100030.69
2024-03-02T08:47:43.638Z,100024.16
2024-03-02T08:50:11.408Z,100031.25
2024-03-02T08:52:40.664Z,100037.66
2024-03-02T08:55:09.257Z,100024.63
2024-03-02T08:57:37.095Z,100025.63
2024-03-02T09:00:06.301Z,100045.50
2024-03-02T09:02:34.067Z,100040.22
2024-03-02T09:05:01.915Z,100026.59
2024-03-02T09:07:29.936Z,100031.88
2024-03-02T09:10:01.882Z,100029.25
2024-03-02T09:12:29.683Z,100022.72
2024-03-02T09:14:57.458Z,100041.63
2024-03-02T09:17:25.420Z,100036.06
2024-03-02T09:19:53.985Z,100044.66
2024-03-02T09:22:21.828Z,100038.03
2024-03-02T09:24:49.670Z,100038.31
2024-03-02T09:27:18.963Z,100038.72
2024-03-02T09:29:46.913Z,100042.50
2024-03-02T09:32:15.681Z,100050.66
2024-03-02T09:34:44.407Z,100053.44
2024-03-02T09:37:12.186Z,100047.91
2024-03-02T09:39:39.908Z,100049.41
2024-03-02T09:42:08.330Z,100049.84
2024-03-02T09:44:37.501Z,100047.75
2024-03-02T09:47:05.722Z,100051.38
2024-03-02T09:49:33.580Z,100042.75
2024-03-02T09:52:01.463Z,100041.09
2024-03-02T09:54:29.905Z,100046.38
2024-03-02T09:56:57.650Z,100042.63
2024-03-02T09:59:25.416Z,100042.59
2024-03-02T10:02:01.632Z,100044.38
2024-03-02T10:04:30.414Z,100044.25
2024-03-02T10:07:22.175Z,100046.47
2024-03-02T10:09:50.844Z,100035.72
2024-03-02T10:12:19.740Z,100036.50
2024-03-02T10:14:49.723Z,100037.59
2024-03-02T10:17:20.089Z,100038.16
2024-03-02T10:19:48.645Z,100042.31
2024-03-02T10:22:16.536Z,100039.13
2024-03-02T10:24:46.275Z,100040.66
2024-03-02T10:27:18.380Z,100030.72
2024-03-02T10:29:48.511Z,100037.06
2024-03-02T10:32:16.922Z,100035.38
2024-03-02T10:34:48.315Z,100037.31
2024-03-02T10:37:18.230Z,100028.06
2024-03-02T10:39:48.626Z,100008.31
2024-03-02T10:42:17.035Z,100027.25
2024-03-02T10:44:45.383Z,100020.25
2024-03-02T10:47:14.604Z,100015.50
2024-03-02T10:49:44.273Z,100019.50
2024-03-02T10:52:13.394Z,100013.34
2024-03-02T10:54:41.798Z,100026.59
2024-03-02T10:57:11.602Z,100018.38
2024-03-02T10:59:41.075Z,100022.09
2024-03-02T11:02:09.607Z,100014.38
2024-03-02T11:04:37.677Z,100025.31
2024-03-02T11:07:07.354Z,100009.66
2024-03-02T11:09:41.360Z,100023.00
2024-03-02T11:12:15.699Z,100019.59
2024-03-02T11:14:45.385Z,100009.00
2024-03-02T11:17:13.919Z,100016.50
2024-03-02T11:19:42.029Z,100018.97
2024-03-02T11:22:10.540Z,100016.72
2024-03-02T11:24:39.753Z,100011.91
2024-03-02T11:27:08.818Z,100009.66
2024-03-02T11:29:46.785Z,100006.00
2024-03-02T11:32:19.559Z,100004.34
2024-03-02T11:34:49.232Z,100009.31
2024-03-02T11:37:17.207Z,100008.34
2024-03-02T11:39:47.627Z,99998.94
2024-03-02T11:44:15.169Z,99986.28
2024-03-02T11:46:43.022Z,99986.00
2024-03-02T11:49:11.017Z,99984.75
2024-03-02T11:51:41.135Z,99987.94
2024-03-02T11:54:10.946Z,99989.47
2024-03-02T11:56:38.619Z,99988.78
2024-03-02T11:59:06.966Z,99989.16
2024-03-02T12:01:38.329Z,99994.50
2024-03-02T12:04:07.536Z,99974.25
2024-03-02T12:06:35.355Z,99984.25
2024-03-02T12:09:03.648Z,99974.94
2024-03-02T12:11:31.429Z,99972.97
2024-03-02T12:14:00.355Z,99977.97
2024-03-02T12:16:28.114Z,99960.72
2024-03-02T12:18:58.249Z,99954.78
2024-03-02T12:21:26.090Z,99964.59
2024-03-02T12:23:53.954Z,99961.28
2024-03-02T12:26:22.146Z,99967.06
2024-03-02T12:28:50.030Z,99955.78
2024-03-02T12:31:17.920Z,99970.22
2024-03-02T12:33:45.712Z,99968.56
2024-03-02T12:38:39.606Z,99963.41
2024-03-02T12:43:15.899Z,99955.78
2024-03-02T12:45:43.759Z,99944.19
2024-03-02T12:48:11.537Z,99951.50
2024-03-02T12:50:39.318Z,99945.34
2024-03-02T12:53:07.051Z,99949.84
2024-03-02T12:57:33.386Z,99943.88
2024-03-02T13:00:01.563Z,99946.84
2024-03-02T13:02:33.016Z,99943.56
2024-03-02T13:05:00.780Z,99950.22
2024-03-02T13:07:29.004Z,99953.50
2024-03-02T13:09:57.772Z,99946.56
2024-03-02T13:12:26.667Z,99956.50
2024-03-02T13:14:56.045Z,99953.84
2024-03-02T14:15:07.098Z,99906.53
2024-03-02T14:17:34.874Z,99900.91
2024-03-02T14:20:06.768Z,99898.69
2024-03-02T14:23:37.381Z,99899.41
2024-03-02T14:26:05.523Z,99898.50
2024-03-02T14:28:47.870Z,99897.44
2024-03-02T14:31:18.962Z,99898.13
2024-03-02T14:33:46.803Z,99900.34
2024-03-02T14:36:14.838Z,99894.72
2024-03-02T14:38:44.456Z,99891.91
2024-03-02T14:41:12.294Z,99885.63
2024-03-02T14:43:40.052Z,99890.78
2024-03-02T14:46:09.479Z,99884.47
2024-03-02T14:48:37.479Z,99881.81
2024-03-02T14:51:05.730Z,99868.53
2024-03-02T14:53:33.490Z,99861.72
2024-03-02T14:56:02.674Z,99862.19
2024-03-02T14:58:30.345Z,99859.53
2024-03-02T15:00:58.400Z,99863.00
2024-03-02T15:03:26.275Z,99854.38
2024-03-02T15:05:54.892Z,99855.56
2024-03-02T15:08:22.645Z,99851.09
2024-03-02T15:10:50.428Z,99858.88
2024-03-02T15:13:19.581Z,99858.41
2024-03-02T15:15:47.494Z,99846.94
2024-03-02T15:18:15.321Z,99862.22
2024-03-02T15:33:06.237Z,99852.25
2024-03-02T15:35:34.266Z,99849.13
2024-03-02T15:38:02.031Z,99846.81
2024-03-02T15:40:29.803Z,99840.50
2024-03-02T15:42:57.632Z,99846.63
2024-03-02T15:45:26.043Z,99846.28
2024-03-02T15:47:53.806Z,99849.41
2024-03-02T15:50:22.959Z,99843.63
2024-03-02T15:52:50.714Z,99847.09
2024-03-02T15:55:18.518Z,99838.31
2024-03-02T15:57:46.407Z,99854.41
2024-03-02T16:00:15.084Z,99848.56
2024-03-02T16:02:42.860Z,99843.28
2024-03-02T16:05:10.855Z,99837.31
2024-03-02T16:07:39.953Z,99839.97
2024-03-02T16:10:09.048Z,99840.63
2024-03-02T16:12:36.899Z,99840.97
2024-03-02T16:15:05.293Z,99834.31
2024-03-02T16:17:33.078Z,99840.94
2024-03-02T16:20:00.787Z,99845.56
2024-03-02T16:22:28.557Z,99849.56
2024-03-02T16:24:57.656Z,99845.38
2024-03-02T16:27:25.731Z,99845.72
2024-03-02T16:29:55.498Z,99847.06
2024-03-02T16:32:23.237Z,99841.88
2024-03-02T16:34:51.575Z,99835.09
2024-03-02T16:37:20.601Z,99836.91
2024-03-02T16:39:49.701Z,99836.41
2024-03-02T16:42:21.075Z,99838.38
2024-03-02T16:44:49.522Z,99842.88
2024-03-02T16:47:17.395Z,99833.91
2024-03-02T16:49:46.385Z,99837.56
2024-03-02T16:52:15.998Z,99841.19
2024-03-02T16:54:43.857Z,99839.03
2024-03-02T16:57:12.590Z,99852.16
2024-03-02T16:59:44.099Z,99848.81
2024-03-02T17:02:12.216Z,99842.66
2024-03-02T17:04:40.057Z,99852.78
2024-03-02T17:07:08.030Z,99852.78
2024-03-02T17:09:36.085Z,99854.78
2024-03-02T17:12:05.584Z,99860.91
2024-03-02T17:14:33.284Z,99856.72
2024-03-02T17:17:02.493Z,99859.38
2024-03-02T17:19:30.431Z,99860.72
2024-03-02T17:21:58.321Z,99865.19
2024-03-02T17:24:26.168Z,99859.34
2024-03-02T17:26:53.918Z,99861.34
2024-03-02T17:30:28.893Z,99861.13
2024-03-02T17:32:56.596Z,99868.25
2024-03-02T17:36:45.762Z,99866.06
2024-03-02T17:39:13.499Z,99875.84
2024-03-02T17:41:41.230Z,99874.03
2024-03-02T17:44:10.336Z,99870.72
2024-03-02T17:46:38.016Z,99866.56
2024-03-02T17:49:05.764Z,99879.16
2024-03-02T17:51:33.596Z,99877.63
2024-03-02T17:54:02.749Z,99872.00
2024-03-02T17:56:31.479Z,99880.75
2024-03-02T17:58:59.625Z,99880.91
2024-03-02T18:01:27.398Z,99883.72
2024-03-02T18:03:55.144Z,99877.09
2024-03-02T18:06:23.066Z,99880.41
2024-03-02T18:08:51.062Z,99881.38
2024-03-02T18:11:20.608Z,99877.91
2024-03-02T18:13:48.396Z,99880.72
2024-03-02T18:16:16.747Z,99883.22
2024-03-02T18:18:44.609Z,99887.50
2024-03-02T18:21:12.404Z,99891.97
2024-03-02T18:23:40.081Z,99889.50
2024-03-02T18:26:07.813Z,99890.63
2024-03-02T18:28:39.150Z,99888.81
2024-03-02T18:31:08.436Z,99887.97
2024-03-02T18:33:38.548Z,99889.94
2024-03-02T18:36:07.435Z,99886.31
2024-03-02T18:38:35.177Z,99886.47
2024-03-02T18:41:02.916Z,99897.22
2024-03-02T18:43:30.627Z,99892.94
2024-03-02T18:46:00.926Z,99894.59
2024-03-02T18:48:28.988Z,99899.72
2024-03-02T18:50:56.806Z,99898.06
2024-03-02T18:53:24.523Z,99896.09
2024-03-02T18:55:53.101Z,99891.59
2024-03-02T18:58:21.179Z,99894.44
2024-03-02T19:00:49.130Z,99902.53
2024-03-02T19:03:18.274Z,99894.59
2024-03-02T19:05:46.028Z,99901.53
2024-03-02T19:08:18.601Z,99902.38
2024-03-02T19:10:46.361Z,99891.59
2024-03-02T19:13:14.084Z,99896.91
2024-03-02T19:15:41.934Z,99896.09
2024-03-02T19:18:09.853Z,99895.91
2024-03-02T19:20:41.586Z,99894.25
2024-03-02T19:23:14.720Z,99893.28
2024-03-02T19:25:46.044Z,99890.28
2024-03-02T19:28:14.433Z,99895.25
2024-03-02T19:30:44.985Z,99898.06
2024-03-02T19:33:15.537Z,99897.22
2024-03-02T19:35:44.679Z,99896.25
2024-03-02T19:38:13.883Z,99895.25
2024-03-02T19:40:41.720Z,99891.94
2024-03-02T19:43:09.567Z,99891.59
2024-03-02T19:45:37.368Z,99895.25
2024-03-02T19:48:05.359Z,99895.25
2024-03-02T19:50:33.252Z,99888.13
2024-03-02T19:53:03.900Z,99890.78
2024-03-02T19:55:31.686Z,99894.44
2024-03-02T19:57:59.441Z,99891.94
2024-03-02T20:00:28.325Z,99886.47
2024-03-02T20:02:56.137Z,99883.84
2024-03-02T20:05:25.343Z,99884.66
2024-03-02T20:07:53.036Z,99874.06
2024-03-02T20:10:22.326Z,99873.22
2024-03-02T20:12:50.131Z,99879.69
2024-03-02T20:15:19.874Z,99877.03
2024-03-02T20:17:48.421Z,99872.84
2024-03-02T20:20:16.936Z,99872.03
2024-03-02T20:22:44.776Z,99872.34
2024-03-02T20:25:14.166Z,99869.97
2024-03-02T20:27:44.607Z,99865.00
2024-03-02T20:30:14.064Z,99870.63
2024-03-02T20:32:41.920Z,99868.94
2024-03-02T20:35:12.704Z,99872.72
2024-03-02T20:37:41.103Z,99870.41
2024-03-02T20:40:10.037Z,99867.91
2024-03-02T20:42:38.558Z,99868.22
2024-03-02T20:45:08.657Z,99858.94
2024-03-02T20:47:36.422Z,99857.41
2024-03-02T20:50:04.376Z,99852.28
2024-03-02T20:52:32.154Z,99849.63
2024-03-02T20:54:59.947Z,99845.47
2024-03-02T20:57:27.663Z,99841.63
2024-03-02T20:59:55.951Z,99850.56
2024-03-02T21:02:25.321Z,99848.91
2024-03-02T21:04:53.073Z,99848.06
2024-03-02T21:07:21.815Z,99849.88
2024-03-02T21:09:49.730Z,99844.72
2024-03-02T21:12:17.520Z,99850.19
2024-03-02T21:14:45.254Z,99845.19
2024-03-02T21:17:12.999Z,99842.56
2024-03-02T21:19:42.037Z,99844.53
2024-03-02T21:22:09.822Z,99842.03
2024-03-02T21:24:38.248Z,99853.75
2024-03-02T21:27:07.800Z,99846.25
2024-03-02T21:29:35.685Z,99851.56
2024-03-02T21:32:03.450Z,99852.69
2024-03-02T21:34:31.151Z,99851.19
2024-03-02T21:37:00.218Z,99853.84
2024-03-02T21:39:35.968Z,99856.66
2024-03-02T21:42:07.993Z,99849.97
2024-03-02T21:44:35.689Z,99858.09
2024-03-02T21:47:06.853Z,99848.66
2024-03-02T21:49:35.000Z,99850.59
2024-03-02T21:52:04.644Z,99863.81
2024-03-02T21:54:33.316Z,99859.13
2024-03-02T21:57:03.483Z,99860.09
2024-03-02T21:59:31.564Z,99854.81
2024-03-02T22:01:59.564Z,99864.72
2024-03-02T22:04:27.393Z,99872.66
2024-03-02T22:06:55.559Z,99864.72
2024-03-02T22:09:24.770Z,99857.09
2024-03-02T22:11:52.513Z,99853.63
2024-03-02T22:14:22.013Z,99857.38
2024-03-02T22:16:49.774Z,99856.88
2024-03-02T22:19:17.539Z,99851.19
2024-03-02T22:21:45.392Z,99851.88
2024-03-02T22:24:14.817Z,99851.19
2024-03-02T22:26:43.956Z,99847.72
2024-03-02T22:29:11.747Z,99851.34
2024-03-02T22:31:39.553Z,99845.41
2024-03-02T22:34:07.411Z,99834.03
2024-03-02T22:36:35.248Z,99847.34
2024-03-02T22:39:03.009Z,99847.34
2024-03-02T22:41:30.778Z,99845.16
2024-03-02T22:44:00.325Z,99852.53
2024-03-02T22:46:28.110Z,99850.88
2024-03-02T22:48:56.272Z,99854.50
2024-03-02T22:51:24.345Z,99870.38
2024-03-02T22:53:52.158Z,99858.97
2024-03-02T22:56:20.844Z,99861.75
2024-03-02T22:58:48.535Z,99866.75
2024-03-02T23:01:21.428Z,99858.44
2024-03-02T23:03:49.395Z,99862.44
2024-03-02T23:06:17.181Z,99867.72
2024-03-02T23:08:45.399Z,99864.09
2024-03-02T23:11:13.415Z,99865.09
2024-03-02T23:13:41.778Z,99867.72
2024-03-02T23:16:10.059Z,99868.41
2024-03-02T23:18:39.371Z,99859.78
2024-03-02T23:21:07.824Z,99865.09
2024-03-02T23:23:35.582Z,99870.69
2024-03-02T23:26:03.797Z,99870.97
2024-03-02T23:28:31.522Z,99863.72
2024-03-02T23:30:59.840Z,99860.09
2024-03-02T23:33:27.628Z,99861.59
2024-03-02T23:35:56.778Z,99858.97
2024-03-02T23:38:24.518Z,99863.41
2024-03-02T23:41:08.986Z,99861.75
2024-03-02T23:43:36.079Z,99855.50
2024-03-02T23:46:03.825Z,99856.31
2024-03-02T23:48:31.580Z,99856.16
2024-03-02T23:51:00.903Z,99852.84
2024-03-02T23:53:28.668Z,99849.38
2024-03-02T23:55:57.727Z,99852.03
2024-03-02T23:58:25.523Z,99849.53
